Main page
METAR-TAF:

METAR-TAF

Airports :

Pickens County Airport

Pickens, South Carolina, United States

latitude: 34-48-36N, longitude: 082-42-10W, elevation: 1014 ft

Current weather observation

The report was made 11 minutes ago, at 22:15 UTC
Wind 7 mph from the Southwest
Temperature 64°F
Humidity 39%
Pressure 30.09 in. Hg
Visibility: 10 miles
Clear sky

METAR: KLQK 222215Z AUTO 22006KT 10SM CLR 18/04 A3009 RMK AO2 T01800041

Time: 18:26 (22:26 UTC)


TAF: missing

Weather observations and forecasts of more than 4000 airports (METAR and TAF reports).

The available stations are represented by yellow and red dots on the map.

Hover mouse over dot to see the name of the station.

Then click to see weather observations and forecasts.

To change the map : click on the green buttons with a black cross to zoom in, on the green button with a dash to zoom out, or on the green arrows for adjacent maps.


METAR-TAF: